Time;durP1;ratioP1;P1;durP2;ratioP2;P2;SDS_P1;SDS_P2;PMS_P1;PMS_P2;Temp;Humidity;BMP_temperature;BMP_pressure;BME280_temperature;BME280_humidity;BME280_pressure;Samples;Min_cycle;Max_cycle;Signal;HPM_P1;HPM_P2
2021/07/21 00:03:34;;;;;;;9.33;5.83;;;;;;;17.22;66.19;101029.23;4916411;60;21221;-82
2021/07/21 00:08:39;;;;;;;9.70;5.40;;;;;;;17.20;66.74;101027.20;5002139;59;21638;-80
2021/07/21 00:13:46;;;;;;;13.60;4.80;;;;;;;17.30;67.12;101029.80;5010952;59;21210;-85
2021/07/21 00:18:56;;;;;;;7.53;4.93;;;;;;;17.25;67.27;101031.61;5011492;59;21957;-80
2021/07/21 00:23:59;;;;;;;10.13;5.43;;;;;;;17.32;68.06;101031.84;5010720;59;22400;-83
2021/07/21 00:29:05;;;;;;;16.97;5.97;;;;;;;17.29;67.99;101029.45;5011087;59;21245;-78
2021/07/21 00:34:12;;;;;;;8.77;5.67;;;;;;;17.23;68.35;101028.24;5019294;59;21197;-85
2021/07/21 00:39:18;;;;;;;10.63;6.10;;;;;;;17.22;68.64;101021.21;5019321;59;21177;-82
2021/07/21 00:44:24;;;;;;;17.13;8.43;;;;;;;17.29;69.03;101022.28;5013006;59;21178;-84
2021/07/21 00:49:31;;;;;;;8.63;6.40;;;;;;;17.42;68.97;101021.91;5010503;59;21238;-84
2021/07/21 00:54:40;;;;;;;7.03;5.00;;;;;;;17.46;68.59;101021.96;5010751;59;21185;-85
2021/07/21 00:59:50;;;;;;;7.37;4.83;;;;;;;17.50;68.95;101015.33;5010660;59;21205;-84
2021/07/21 01:04:56;;;;;;;7.00;4.23;;;;;;;17.44;68.98;101012.75;4997888;59;21119;-83
2021/07/21 01:10:02;;;;;;;13.07;4.77;;;;;;;17.31;68.78;101005.59;4935977;60;21663;-84
2021/07/21 01:15:17;;;;;;;12.10;6.13;;;;;;;17.16;69.01;101014.62;4936180;60;21738;-81
2021/07/21 01:20:46;;;;;;;12.10;7.07;;;;;;;16.99;69.19;101013.23;4936109;60;21134;-82
2021/07/21 01:26:10;;;;;;;22.97;11.80;;;;;;;16.87;69.60;101010.77;4935634;60;21194;-81
2021/07/21 01:31:25;;;;;;;16.47;9.67;;;;;;;16.70;69.96;101012.87;4929902;60;21217;-82
2021/07/21 01:36:47;;;;;;;14.70;8.17;;;;;;;16.48;70.42;101011.88;4935102;60;21194;-84
2021/07/21 01:41:58;;;;;;;13.77;7.47;;;;;;;16.41;70.93;101010.27;4928100;60;21237;-82
2021/07/21 01:47:05;;;;;;;9.40;4.80;;;;;;;16.46;71.39;101018.69;4916975;60;21236;-79
2021/07/21 01:52:15;;;;;;;9.17;4.70;;;;;;;16.50;71.62;101019.22;4916936;60;21209;-79
2021/07/21 01:57:22;;;;;;;5.70;4.93;;;;;;;16.46;71.55;101013.35;4916875;60;21154;-84
2021/07/21 02:02:32;;;;;;;6.10;5.23;;;;;;;16.41;71.64;101020.09;4915853;60;21229;-82
2021/07/21 02:07:43;;;;;;;6.80;5.10;;;;;;;16.34;71.79;101022.52;4981606;59;21930;-84
2021/07/21 02:12:58;;;;;;;5.33;4.17;;;;;;;16.37;72.36;101028.03;5008126;59;21531;-80
2021/07/21 02:18:07;;;;;;;7.20;4.47;;;;;;;16.47;72.45;101026.21;5018431;59;21182;-80
2021/07/21 02:23:18;;;;;;;7.57;4.57;;;;;;;16.40;71.78;101027.76;5018953;59;21201;-82
2021/07/21 02:28:24;;;;;;;9.27;4.80;;;;;;;16.23;71.85;101029.33;5015121;59;21177;-84
2021/07/21 02:33:56;;;;;;;6.70;4.93;;;;;;;15.99;72.08;101034.28;5011977;59;21162;-81
2021/07/21 02:39:08;;;;;;;8.13;4.83;;;;;;;15.90;72.81;101032.45;5006859;59;21209;-79
2021/07/21 02:44:14;;;;;;;5.20;4.70;;;;;;;15.83;73.05;101039.70;5004240;59;21230;-87
2021/07/21 02:49:23;;;;;;;7.40;5.10;;;;;;;15.94;73.67;101045.86;4999877;59;21210;-81
2021/07/21 02:54:40;;;;;;;10.93;4.97;;;;;;;16.07;73.95;101041.08;5000904;59;21670;-81
2021/07/21 02:59:52;;;;;;;6.90;4.80;;;;;;;16.14;73.92;101051.06;5000437;59;21210;-80
2021/07/21 03:05:00;;;;;;;12.50;5.93;;;;;;;16.02;73.86;101051.35;4821601;61;21207;-79
2021/07/21 03:10:11;;;;;;;9.60;4.43;;;;;;;16.02;74.17;101053.53;4933214;59;21484;-81
2021/07/21 03:15:19;;;;;;;10.37;6.33;;;;;;;16.01;74.36;101053.17;4858379;61;21794;-80
2021/07/21 03:20:25;;;;;;;9.73;7.10;;;;;;;15.93;74.41;101052.17;4938807;60;21237;-84
2021/07/21 03:25:34;;;;;;;11.13;7.03;;;;;;;15.82;74.74;101055.34;4858914;61;21186;-83
2021/07/21 03:30:41;;;;;;;9.20;5.90;;;;;;;15.74;74.94;101052.52;4935101;60;21179;-79
2021/07/21 03:35:52;;;;;;;7.67;6.20;;;;;;;15.73;75.03;101048.69;4938055;59;21116;-83
2021/07/21 03:41:01;;;;;;;14.67;6.67;;;;;;;15.85;75.58;101062.23;4860430;61;21613;-81
2021/07/21 03:46:08;;;;;;;11.87;5.67;;;;;;;16.06;76.23;101066.92;4926174;60;21159;-84
2021/07/21 03:51:14;;;;;;;11.00;5.87;;;;;;;16.15;76.06;101064.76;4924780;60;21205;-82
2021/07/21 03:56:41;;;;;;;10.50;5.77;;;;;;;16.09;75.85;101060.46;4928082;60;21218;-76
2021/07/21 04:01:50;;;;;;;7.57;5.47;;;;;;;16.06;76.02;101067.41;4927814;59;21181;-82
2021/07/21 04:06:57;;;;;;;9.63;6.17;;;;;;;16.01;76.10;101070.52;4928675;60;21189;-85
2021/07/21 04:12:06;;;;;;;16.50;6.43;;;;;;;16.05;76.47;101065.72;4926995;60;21193;-85
2021/07/21 04:17:26;;;;;;;14.50;5.97;;;;;;;16.06;76.75;101072.25;4928861;60;21213;-86
2021/07/21 04:22:34;;;;;;;11.27;5.53;;;;;;;16.04;76.94;101076.88;4890255;60;21822;-89
2021/07/21 04:27:42;;;;;;;9.83;6.20;;;;;;;16.04;77.34;101080.08;4928783;60;21134;-80
2021/07/21 04:32:50;;;;;;;8.73;6.57;;;;;;;16.07;77.73;101091.28;4920386;60;21217;-81
2021/07/21 04:37:57;;;;;;;11.57;5.73;;;;;;;16.06;77.94;101088.75;4919803;60;21166;-79
2021/07/21 04:43:07;;;;;;;6.93;5.77;;;;;;;16.10;78.43;101091.50;4917593;60;21274;-88
2021/07/21 04:48:16;;;;;;;12.60;5.97;;;;;;;16.10;78.31;101094.17;4931110;60;21194;-84
2021/07/21 04:53:23;;;;;;;10.73;6.23;;;;;;;16.10;78.80;101103.52;4927225;60;22441;-82
2021/07/21 04:58:30;;;;;;;7.70;5.40;;;;;;;16.06;78.97;101106.94;4933195;60;21146;-90
2021/07/21 05:03:38;;;;;;;6.30;5.10;;;;;;;16.06;79.40;101110.95;4932072;60;21234;-83
2021/07/21 05:08:45;;;;;;;9.47;6.17;;;;;;;16.17;79.80;101109.49;5007983;59;21146;-81
2021/07/21 05:13:58;;;;;;;8.03;5.70;;;;;;;16.23;79.85;101110.73;5020751;59;21203;-82
2021/07/21 05:19:06;;;;;;;9.73;6.07;;;;;;;16.37;80.20;101108.97;5020985;59;21639;-86
2021/07/21 05:24:12;;;;;;;12.30;6.27;;;;;;;16.50;80.60;101118.02;5021113;59;21127;-82
2021/07/21 05:29:18;;;;;;;10.80;5.70;;;;;;;16.64;80.62;101112.30;5021234;59;21505;-83
2021/07/21 05:34:29;;;;;;;12.37;6.50;;;;;;;16.83;80.71;101118.90;5020509;59;21210;-79
2021/07/21 05:39:48;;;;;;;10.60;5.57;;;;;;;17.00;80.24;101117.80;5020903;59;21611;-86
2021/07/21 06:03:20;;;;;;;9.60;5.77;;;;;;;17.36;78.62;101116.11;5267100;56;21076;-77
2021/07/21 06:08:42;;;;;;;12.03;5.73;;;;;;;17.63;77.72;101123.28;5153027;57;21186;-79
2021/07/21 06:13:57;;;;;;;8.27;5.37;;;;;;;17.74;77.42;101122.60;5236346;56;21533;-84
2021/07/21 06:19:00;;;;;;;8.67;5.33;;;;;;;17.85;76.97;101130.44;5152774;57;21186;-81
2021/07/21 06:24:06;;;;;;;7.80;5.30;;;;;;;18.00;76.71;101140.62;5235786;56;21442;-83
2021/07/21 06:29:13;;;;;;;7.27;4.63;;;;;;;18.15;76.59;101146.63;5229841;56;21186;-82
2021/07/21 06:34:20;;;;;;;9.23;5.43;;;;;;;18.27;76.48;101150.77;5174996;56;21694;-79
2021/07/21 06:39:26;;;;;;;6.90;5.33;;;;;;;18.36;75.61;101153.00;5070215;58;21486;-87
2021/07/21 06:44:33;;;;;;;6.33;5.27;;;;;;;18.45;75.81;101160.62;5152135;57;21195;-85
2021/07/21 06:49:43;;;;;;;9.23;6.33;;;;;;;18.55;75.05;101154.67;5066595;58;21284;-80
2021/07/21 06:54:49;;;;;;;8.13;5.10;;;;;;;18.58;74.41;101156.58;5152468;57;21198;-88
2021/07/21 07:00:08;;;;;;;6.90;5.00;;;;;;;18.71;74.32;101161.53;5109311;57;21178;-88
2021/07/21 07:05:32;;;;;;;11.73;6.90;;;;;;;18.87;74.59;101152.27;5231556;56;21101;-91
2021/07/21 07:23:42;;;;;;;8.55;5.60;;;;;;;19.08;73.38;101155.94;5268146;56;21076;-86
2021/07/21 07:28:47;;;;;;;4.70;4.03;;;;;;;19.36;71.99;101181.22;5142037;57;21257;-85
2021/07/21 07:33:52;;;;;;;4.53;3.70;;;;;;;19.52;71.66;101177.31;5142110;57;21599;-92
2021/07/21 07:38:58;;;;;;;7.85;4.10;;;;;;;19.67;70.75;101173.02;5142253;57;21173;-86
2021/07/21 07:44:06;;;;;;;5.35;3.62;;;;;;;19.79;71.12;101165.00;5130075;57;21265;-81
2021/07/21 07:49:12;;;;;;;6.97;3.80;;;;;;;19.97;71.39;101171.59;5088366;56;21147;-78
2021/07/21 07:54:20;;;;;;;3.20;2.90;;;;;;;20.08;70.34;101172.63;5204895;55;21142;-82
2021/07/21 08:15:44;;;;;;;3.42;2.33;;;;;;;20.12;69.79;101161.90;5213169;56;21160;-81
2021/07/21 08:20:50;;;;;;;2.80;2.55;;;;;;;20.40;65.56;101167.83;5126794;56;21227;-83
2021/07/21 08:25:55;;;;;;;4.33;2.60;;;;;;;20.22;66.34;101173.32;5192586;55;21200;-74
2021/07/21 08:31:01;;;;;;;2.72;2.40;;;;;;;20.19;66.70;101174.14;5230415;56;21589;-79
2021/07/21 08:36:07;;;;;;;2.33;2.20;;;;;;;20.40;65.67;101167.00;5227537;56;21151;-76
2021/07/21 08:41:13;;;;;;;3.98;3.25;;;;;;;20.59;64.94;101175.58;5214331;56;21527;-78
2021/07/21 08:46:20;;;;;;;2.92;2.65;;;;;;;20.58;64.78;101181.12;5235709;56;21209;-78
2021/07/21 08:51:26;;;;;;;10.18;3.15;;;;;;;20.48;65.35;101184.45;5207423;56;21170;-79
2021/07/21 08:56:32;;;;;;;5.47;2.90;;;;;;;20.34;65.89;101188.61;5217209;56;21179;-81
2021/07/21 09:01:40;;;;;;;7.30;3.47;;;;;;;20.28;66.76;101191.47;5224391;56;21790;-75
2021/07/21 09:06:46;;;;;;;4.05;3.10;;;;;;;20.31;66.46;101199.71;5215315;56;21187;-83
2021/07/21 09:11:52;;;;;;;6.47;3.42;;;;;;;20.31;66.38;101203.23;5155676;56;21220;-88
2021/07/21 09:17:12;;;;;;;6.58;3.35;;;;;;;20.22;66.86;101200.69;5155874;56;21224;-83
2021/07/21 09:22:22;;;;;;;4.60;2.83;;;;;;;20.03;67.07;101205.33;5155792;56;21213;-83
2021/07/21 09:27:28;;;;;;;4.87;3.80;;;;;;;19.94;67.81;101209.52;5177765;56;21186;-77
2021/07/21 09:32:37;;;;;;;3.10;2.80;;;;;;;19.88;68.15;101208.30;5178320;56;21677;-81
2021/07/21 09:37:43;;;;;;;4.10;3.37;;;;;;;19.89;68.38;101208.64;5160881;55;21194;-81
2021/07/21 09:42:48;;;;;;;10.18;3.80;;;;;;;19.98;68.51;101207.69;5176300;55;21204;-79
2021/07/21 09:47:59;;;;;;;4.15;3.20;;;;;;;20.13;68.61;101205.21;5204812;56;21467;-78
2021/07/21 09:53:12;;;;;;;4.78;3.47;;;;;;;20.29;68.24;101201.22;5198668;56;21587;-81
2021/07/21 09:58:23;;;;;;;5.05;3.70;;;;;;;20.40;67.85;101201.92;5104735;57;21158;-77
2021/07/21 10:03:35;;;;;;;3.70;2.83;;;;;;;20.41;67.12;101208.48;5129738;56;21766;-81
2021/07/21 10:08:52;;;;;;;3.40;2.90;;;;;;;20.36;67.12;101211.66;5196847;55;21273;-78
2021/07/21 10:14:08;;;;;;;4.00;2.77;;;;;;;20.38;66.79;101207.97;5113529;56;21689;-79
2021/07/21 10:19:30;;;;;;;4.60;3.62;;;;;;;20.47;67.44;101213.17;5191555;56;21496;-77
2021/07/21 10:24:38;;;;;;;5.47;3.52;;;;;;;20.63;66.95;101206.97;5147249;56;21191;-84
2021/07/21 10:29:44;;;;;;;3.52;3.10;;;;;;;20.82;66.74;101207.98;5159550;56;21473;-78
2021/07/21 10:34:52;;;;;;;3.60;3.08;;;;;;;20.90;65.32;101205.81;5143460;56;21211;-79
2021/07/21 10:39:58;;;;;;;7.40;3.12;;;;;;;20.89;65.65;101207.66;5182269;55;21162;-83
2021/07/21 10:45:20;;;;;;;5.22;3.02;;;;;;;20.77;64.91;101206.83;5176181;56;21449;-88
2021/07/21 10:50:59;;;;;;;4.03;3.62;;;;;;;20.70;66.02;101212.02;5206278;56;21104;-81
2021/07/21 11:01:55;;;;;;;4.03;2.72;;;;;;;20.63;66.23;101211.84;5193836;55;21202;-80
2021/07/21 11:07:01;;;;;;;3.22;2.85;;;;;;;20.70;66.41;101213.37;5135013;56;21234;-83
2021/07/21 11:12:07;;;;;;;9.28;3.80;;;;;;;20.76;66.09;101214.05;5181930;56;21525;-78
2021/07/21 11:17:14;;;;;;;2.70;2.50;;;;;;;20.70;65.66;101218.74;5212437;55;21179;-79
2021/07/21 11:22:24;;;;;;;5.92;2.30;;;;;;;20.55;66.48;101227.98;5141002;56;21244;-83
2021/07/21 11:27:54;;;;;;;6.00;2.17;;;;;;;20.42;66.80;101234.34;5188215;56;21207;-82
2021/07/21 11:33:19;;;;;;;5.65;2.27;;;;;;;20.32;67.12;101233.60;5182746;56;21202;-82
2021/07/21 11:38:45;;;;;;;8.13;2.83;;;;;;;20.35;67.86;101235.96;5183631;56;21227;-85
2021/07/21 11:43:56;;;;;;;3.30;2.77;;;;;;;20.45;68.54;101241.23;5136782;56;21652;-76
2021/07/21 11:49:02;;;;;;;4.45;2.80;;;;;;;20.67;68.77;101236.55;5111047;56;21201;-82
2021/07/21 11:54:09;;;;;;;3.35;2.52;;;;;;;20.85;68.43;101241.77;5209381;55;21743;-81
2021/07/21 11:59:17;;;;;;;7.35;2.58;;;;;;;20.95;67.42;101240.58;5145626;56;21194;-81
2021/07/21 12:04:30;;;;;;;4.62;2.52;;;;;;;20.94;66.97;101237.55;5150914;56;21231;-76
2021/07/21 12:09:41;;;;;;;6.12;2.67;;;;;;;21.01;67.14;101239.91;5122327;57;21697;-77
2021/07/21 12:14:56;;;;;;;5.37;2.77;;;;;;;21.05;66.92;101233.70;5199165;56;21231;-78
2021/07/21 12:20:12;;;;;;;14.38;2.95;;;;;;;21.33;68.01;101231.50;5175300;56;21226;-82
2021/07/21 12:25:19;;;;;;;3.98;3.12;;;;;;;21.88;67.99;101218.00;5183364;56;21695;-81
2021/07/21 12:30:26;;;;;;;4.65;3.20;;;;;;;22.36;66.62;101206.65;5158363;56;21178;-83
2021/07/21 12:35:32;;;;;;;5.58;3.20;;;;;;;22.74;64.98;101208.39;5185247;55;21689;-84
2021/07/21 12:40:38;;;;;;;3.20;2.50;;;;;;;23.01;62.58;101211.55;5173849;56;21101;-78
2021/07/21 12:45:43;;;;;;;3.67;3.37;;;;;;;23.21;60.53;101210.01;5196705;55;21190;-78
2021/07/21 12:50:49;;;;;;;7.40;3.30;;;;;;;23.15;60.33;101207.52;5182646;55;21276;-81
2021/07/21 12:55:58;;;;;;;4.95;3.10;;;;;;;22.90;59.17;101202.56;5103850;56;21211;-84
2021/07/21 13:01:03;;;;;;;6.40;2.90;;;;;;;22.73;59.71;101209.92;5102439;56;21166;-83
2021/07/21 13:06:09;;;;;;;3.40;3.00;;;;;;;22.50;59.69;101205.88;5209929;55;21203;-82
2021/07/21 13:11:16;;;;;;;4.40;3.10;;;;;;;22.43;60.75;101200.88;5183886;55;21154;-87
2021/07/21 13:16:30;;;;;;;6.12;3.62;;;;;;;22.36;60.26;101199.91;5212841;55;21396;-79
2021/07/21 13:21:40;;;;;;;9.90;3.00;;;;;;;22.30;60.52;101207.38;5160229;56;21186;-80
2021/07/21 13:27:00;;;;;;;3.22;2.98;;;;;;;22.24;61.09;101203.53;5151588;56;22070;-81
2021/07/21 13:32:07;;;;;;;3.30;2.92;;;;;;;22.23;60.78;101207.24;5143965;56;21241;-82
2021/07/21 13:37:17;;;;;;;4.75;3.70;;;;;;;22.39;62.00;101208.48;5184083;55;21203;-86
2021/07/21 13:42:23;;;;;;;2.98;2.72;;;;;;;22.55;60.31;101194.05;5131408;56;21634;-81
2021/07/21 13:47:33;;;;;;;6.22;3.75;;;;;;;22.51;60.36;101199.46;5198159;56;21211;-80
2021/07/21 13:52:39;;;;;;;3.05;2.75;;;;;;;22.44;60.70;101198.02;5106506;57;21213;-78
2021/07/21 13:57:45;;;;;;;5.15;3.30;;;;;;;22.43;61.20;101200.38;5155190;56;21230;-84
2021/07/21 14:02:51;;;;;;;6.72;4.67;;;;;;;22.36;60.74;101195.86;5162505;56;21199;-83
2021/07/21 14:07:56;;;;;;;5.45;3.67;;;;;;;22.28;60.59;101195.43;5194848;55;21162;-85
2021/07/21 14:13:02;;;;;;;3.42;3.02;;;;;;;22.27;60.26;101192.91;5189503;55;21502;-87
2021/07/21 14:18:08;;;;;;;7.30;3.58;;;;;;;22.28;60.26;101190.04;5193166;55;21511;-82
2021/07/21 14:23:14;;;;;;;6.03;3.77;;;;;;;22.35;60.59;101192.33;5185150;56;21186;-79
2021/07/21 14:28:19;;;;;;;6.17;3.20;;;;;;;22.40;59.15;101184.55;5200058;56;21258;-81
2021/07/21 14:33:25;;;;;;;6.12;3.65;;;;;;;22.42;59.20;101189.77;5199870;55;21159;-84
2021/07/21 14:38:31;;;;;;;3.00;2.77;;;;;;;22.49;59.88;101186.67;5142830;56;21163;-81
2021/07/21 14:43:37;;;;;;;3.15;2.95;;;;;;;22.54;59.94;101176.70;5201735;55;21608;-82
2021/07/21 14:48:43;;;;;;;4.30;2.72;;;;;;;22.57;59.90;101175.84;5125044;56;21220;-85
2021/07/21 14:53:49;;;;;;;2.87;2.67;;;;;;;22.67;59.58;101176.92;5127994;56;21183;-84
2021/07/21 14:58:54;;;;;;;2.98;2.77;;;;;;;22.70;58.62;101175.22;5148714;56;22235;-76
2021/07/21 15:04:00;;;;;;;3.72;3.40;;;;;;;22.64;57.85;101171.38;5209963;56;21166;-81
2021/07/21 15:09:08;;;;;;;3.08;2.85;;;;;;;22.64;57.78;101168.68;5201513;56;21228;-86
2021/07/21 15:14:16;;;;;;;8.10;3.15;;;;;;;22.73;57.21;101168.95;5202965;56;21142;-81
2021/07/21 15:19:22;;;;;;;7.15;4.25;;;;;;;22.76;57.29;101166.41;5200948;56;21182;-79
2021/07/21 15:24:28;;;;;;;5.70;3.15;;;;;;;22.78;56.98;101175.16;5203444;56;21156;-83
2021/07/21 15:29:34;;;;;;;7.40;4.85;;;;;;;22.77;57.08;101182.92;5121976;57;22152;-81
2021/07/21 15:34:40;;;;;;;9.30;5.12;;;;;;;22.65;57.76;101184.35;5178877;56;21921;-81
2021/07/21 15:39:46;;;;;;;8.55;3.33;;;;;;;22.48;58.26;101192.23;5166616;56;22148;-82
2021/07/21 15:44:52;;;;;;;4.33;3.87;;;;;;;22.38;58.80;101192.48;5183051;56;21146;-82
2021/07/21 15:49:58;;;;;;;4.05;3.72;;;;;;;22.33;59.56;101181.39;5157400;56;21761;-81
2021/07/21 15:55:05;;;;;;;8.53;7.62;;;;;;;22.32;59.60;101185.11;5153737;56;21206;-81
2021/07/21 16:00:20;;;;;;;5.12;4.60;;;;;;;22.32;59.60;101191.84;5152896;57;21242;-82
2021/07/21 16:05:28;;;;;;;16.32;5.85;;;;;;;22.30;59.88;101192.05;5149414;57;21218;-81
2021/07/21 16:10:35;;;;;;;10.03;3.58;;;;;;;22.30;59.87;101197.95;5129023;57;21596;-82
2021/07/21 16:15:41;;;;;;;4.80;2.98;;;;;;;22.19;59.57;101198.34;5153842;57;21111;-82
2021/07/21 16:20:46;;;;;;;8.60;3.45;;;;;;;22.07;59.65;101192.02;5132317;57;22108;-82
2021/07/21 16:25:52;;;;;;;4.65;3.40;;;;;;;22.01;60.00;101194.56;5158167;57;21107;-81
2021/07/21 16:30:58;;;;;;;4.55;3.33;;;;;;;;;;5145745;57;21548;-81
2021/07/21 16:36:04;;;;;;;113.45;97.08;;;;;;;22.04;59.84;101194.22;5187654;56;21191;-82
2021/07/21 16:41:09;;;;;;;74.67;61.40;;;;;;;22.01;59.18;101195.91;5212631;56;21109;-81
2021/07/21 16:46:15;;;;;;;7.60;6.90;;;;;;;22.07;58.95;101202.79;5213590;56;21211;-83
2021/07/21 16:51:21;;;;;;;7.40;6.70;;;;;;;22.07;57.31;101199.25;5208419;56;21151;-81
2021/07/21 16:56:27;;;;;;;9.95;3.60;;;;;;;21.98;58.47;101196.26;5223201;56;21167;-82
2021/07/21 17:01:33;;;;;;;4.85;3.55;;;;;;;21.98;58.17;101194.41;5201275;56;21170;-82
2021/07/21 17:06:39;;;;;;;2.90;2.70;;;;;;;22.06;58.52;101204.31;5217640;56;21163;-82
2021/07/21 17:11:46;;;;;;;5.12;3.47;;;;;;;22.10;58.26;101202.95;5174340;56;21525;-82
2021/07/21 17:16:52;;;;;;;6.35;3.42;;;;;;;22.08;58.29;101211.20;5154242;57;21174;-82
2021/07/21 17:21:58;;;;;;;7.08;6.40;;;;;;;22.09;59.13;101208.84;5155810;57;21171;-82
2021/07/21 17:27:04;;;;;;;6.40;4.95;;;;;;;22.04;58.65;101209.03;5149493;57;21171;-82
2021/07/21 17:32:11;;;;;;;13.13;10.98;;;;;;;21.94;58.55;101215.12;5152724;57;21206;-82
2021/07/21 17:37:17;;;;;;;9.23;5.70;;;;;;;21.82;57.81;101217.38;5204180;56;21194;-83
2021/07/21 17:42:23;;;;;;;61.00;49.55;;;;;;;21.70;58.41;101219.59;5201201;56;21162;-83
2021/07/21 17:47:29;;;;;;;8.78;7.58;;;;;;;21.62;58.30;101228.22;5226035;56;22191;-82
2021/07/21 17:52:34;;;;;;;15.05;6.15;;;;;;;21.52;58.42;101224.39;5208529;56;21155;-82
2021/07/21 17:57:41;;;;;;;7.37;5.58;;;;;;;21.48;58.87;101231.62;5223618;56;21101;-82
2021/07/21 18:02:47;;;;;;;10.55;6.92;;;;;;;21.43;59.09;101229.44;5216864;56;21124;-83
2021/07/21 18:07:55;;;;;;;14.95;8.25;;;;;;;21.40;59.46;101230.63;5213182;56;21186;-83
2021/07/21 18:13:02;;;;;;;18.80;9.03;;;;;;;21.41;59.81;101228.77;5163446;56;21634;-82
2021/07/21 18:18:09;;;;;;;19.57;9.25;;;;;;;21.42;60.13;101233.14;5147285;57;21186;-83
2021/07/21 18:23:15;;;;;;;21.45;9.53;;;;;;;21.43;60.39;101235.33;5145247;57;21169;-82
2021/07/21 18:28:21;;;;;;;18.07;8.90;;;;;;;21.41;60.67;101232.30;5145156;57;21149;-82
2021/07/21 18:33:27;;;;;;;24.27;9.55;;;;;;;21.40;60.89;101235.16;5211024;56;21167;-82
2021/07/21 18:38:34;;;;;;;14.15;7.67;;;;;;;21.37;61.34;101230.98;5243015;56;21163;-82
2021/07/21 18:43:41;;;;;;;17.10;9.25;;;;;;;21.31;61.26;101226.78;5154768;57;21171;-82
2021/07/21 18:48:46;;;;;;;27.90;12.05;;;;;;;21.24;61.62;101237.88;5241366;56;21823;-82
2021/07/21 18:53:54;;;;;;;33.90;14.55;;;;;;;21.08;61.51;101243.28;5241576;56;21190;-82
2021/07/21 18:58:59;;;;;;;21.68;11.43;;;;;;;20.85;61.80;101243.11;5240637;56;21249;-82
2021/07/21 19:04:05;;;;;;;24.50;11.83;;;;;;;20.71;62.26;101256.72;5242301;56;22245;-82
2021/07/21 19:09:11;;;;;;;13.20;5.35;;;;;;;20.60;62.76;101258.39;5150981;57;21207;-82
2021/07/21 19:14:16;;;;;;;5.37;4.40;;;;;;;20.42;63.25;101266.59;5157565;57;22079;-82
2021/07/21 19:19:22;;;;;;;14.38;5.17;;;;;;;20.30;64.17;101273.25;5158655;57;21108;-83
2021/07/21 19:24:27;;;;;;;8.75;4.75;;;;;;;20.28;64.58;101269.88;5159920;57;21235;-82
2021/07/21 19:29:33;;;;;;;7.65;4.55;;;;;;;20.41;65.32;101272.13;5158669;57;21166;-82
2021/07/21 19:34:38;;;;;;;11.50;5.28;;;;;;;20.52;65.47;101276.67;5155883;57;21168;-82
2021/07/21 19:39:44;;;;;;;19.55;8.43;;;;;;;20.50;65.04;101285.91;5150995;57;21169;-82
2021/07/21 19:44:51;;;;;;;27.40;11.83;;;;;;;20.42;65.00;101288.59;5159070;57;21096;-82
2021/07/21 19:49:56;;;;;;;21.33;10.85;;;;;;;20.32;65.01;101291.36;5155877;57;21189;-82
2021/07/21 19:55:03;;;;;;;15.25;9.20;;;;;;;20.29;65.45;101293.06;5155022;57;21167;-82
2021/07/21 20:00:11;;;;;;;17.12;8.38;;;;;;;20.22;65.42;101293.36;5154276;57;21166;-83
2021/07/21 20:05:16;;;;;;;39.03;19.35;;;;;;;20.12;65.36;101298.03;5151681;57;21205;-82
2021/07/21 20:10:22;;;;;;;20.90;11.63;;;;;;;20.09;65.71;101299.19;5156022;57;21162;-81
2021/07/21 20:15:28;;;;;;;32.23;13.08;;;;;;;20.15;66.02;101303.92;5075092;58;21160;-83
2021/07/21 20:20:34;;;;;;;41.08;16.75;;;;;;;20.17;66.03;101301.89;5153128;57;21179;-82
2021/07/21 20:25:40;;;;;;;46.45;18.35;;;;;;;20.22;66.41;101304.94;5166561;56;21171;-80
2021/07/21 20:30:46;;;;;;;35.58;16.45;;;;;;;20.33;66.72;101305.14;5217320;56;21093;-82
2021/07/21 20:35:53;;;;;;;46.40;17.62;;;;;;;20.44;66.82;101306.23;5159719;56;21652;-82
2021/07/21 20:41:00;;;;;;;41.58;17.50;;;;;;;20.45;66.58;101299.86;5162495;56;21154;-82
2021/07/21 20:46:06;;;;;;;35.00;14.07;;;;;;;20.30;66.41;101302.80;5158830;56;21222;-82
2021/07/21 20:51:13;;;;;;;28.87;13.58;;;;;;;20.13;66.77;101310.45;5156953;56;21220;-82
2021/07/21 20:56:18;;;;;;;32.78;14.63;;;;;;;19.92;67.18;101304.14;5160848;56;21170;-82
2021/07/21 21:01:24;;;;;;;38.15;13.85;;;;;;;19.89;67.71;101310.67;5182449;56;21136;-82
2021/07/21 21:06:30;;;;;;;30.90;14.40;;;;;;;19.89;67.70;101308.48;5189414;56;21100;-81
2021/07/21 21:11:35;;;;;;;35.43;10.72;;;;;;;19.86;67.86;101302.12;5208796;56;21193;-82
2021/07/21 21:16:41;;;;;;;20.95;10.50;;;;;;;19.81;68.05;101304.43;5213391;56;21206;-82
2021/07/21 21:21:47;;;;;;;11.78;7.58;;;;;;;19.76;68.56;101304.05;5205022;56;21179;-82
2021/07/21 21:26:53;;;;;;;12.55;7.05;;;;;;;19.68;68.95;101303.52;5161924;56;21554;-82
2021/07/21 21:31:58;;;;;;;12.85;6.28;;;;;;;19.68;69.04;101309.39;5155819;56;21254;-82
2021/07/21 21:37:04;;;;;;;12.98;7.80;;;;;;;19.66;68.82;101313.08;5157172;56;21176;-82
2021/07/21 21:42:10;;;;;;;11.85;7.10;;;;;;;19.74;68.96;101313.61;5166841;56;21199;-82
2021/07/21 21:47:16;;;;;;;13.20;6.45;;;;;;;19.83;69.33;101307.80;5189207;56;21513;-82
2021/07/21 21:52:22;;;;;;;13.70;7.80;;;;;;;19.96;69.41;101309.54;5190156;56;21100;-82
2021/07/21 21:57:28;;;;;;;10.75;6.67;;;;;;;19.98;68.88;101304.85;5180364;56;21218;-83
2021/07/21 22:02:33;;;;;;;9.60;6.87;;;;;;;19.99;68.94;101311.41;5165779;56;21180;-82
2021/07/21 22:07:40;;;;;;;12.18;6.65;;;;;;;19.98;68.73;101316.44;5169570;56;21168;-81
2021/07/21 22:12:45;;;;;;;14.30;6.72;;;;;;;19.97;68.71;101321.47;5192138;56;21564;-81
2021/07/21 22:17:52;;;;;;;15.00;7.50;;;;;;;19.90;68.59;101320.91;5188261;56;21250;-81
2021/07/21 22:23:12;;;;;;;9.78;6.03;;;;;;;19.86;68.69;101323.06;5186068;56;21187;-81
2021/07/21 22:28:17;;;;;;;13.25;7.05;;;;;;;19.90;68.75;101320.91;5166446;56;21179;-81
2021/07/21 22:33:35;;;;;;;13.90;6.37;;;;;;;19.88;68.79;101325.59;5153067;57;21154;-81
2021/07/21 22:38:43;;;;;;;9.63;5.40;;;;;;;19.90;68.88;101323.09;5151698;56;21155;-81
2021/07/21 22:43:49;;;;;;;10.93;5.92;;;;;;;19.86;68.66;101327.63;5135902;57;21152;-81
2021/07/21 22:48:54;;;;;;;5.55;5.00;;;;;;;19.85;68.89;101325.44;5138855;56;21622;-81
2021/07/21 22:54:00;;;;;;;8.85;5.53;;;;;;;19.78;68.54;101330.24;5137254;57;21565;-82
2021/07/21 22:59:22;;;;;;;9.75;5.67;;;;;;;19.67;68.76;101331.36;5154243;56;21222;-81
2021/07/21 23:05:22;;;;;;;8.68;6.12;;;;;;;19.59;68.75;101335.31;5073432;57;21135;-82
2021/07/21 23:11:22;;;;;;;6.50;5.35;;;;;;;19.58;69.18;101329.61;5072090;57;21166;-82
2021/07/21 23:16:28;;;;;;;15.58;6.53;;;;;;;19.72;69.58;101331.70;5046088;58;21095;-81
2021/07/21 23:21:34;;;;;;;9.73;6.33;;;;;;;19.82;69.51;101327.09;5039621;58;21167;-82
2021/07/21 23:26:39;;;;;;;9.05;5.80;;;;;;;19.85;69.60;101329.46;4990501;59;21173;-82
2021/07/21 23:31:46;;;;;;;14.70;6.70;;;;;;;19.76;69.25;101330.40;5031849;58;21185;-82
2021/07/21 23:36:51;;;;;;;12.25;6.90;;;;;;;19.62;69.57;101325.61;5054835;57;21596;-81
2021/07/21 23:42:01;;;;;;;17.50;10.72;;;;;;;19.54;69.83;101317.53;5212682;56;21681;-81
2021/07/21 23:47:07;;;;;;;10.80;6.03;;;;;;;19.56;70.27;101316.84;5241489;56;21173;-82
2021/07/21 23:52:12;;;;;;;13.32;6.25;;;;;;;19.55;70.36;101316.03;5199959;56;21175;-82
2021/07/21 23:57:18;;;;;;;11.97;7.40;;;;;;;19.50;70.41;101314.81;5204811;56;21533;-81
